Time;durP1;ratioP1;P1;durP2;ratioP2;P2;SDS_P1;SDS_P2;PMS_P1;PMS_P2;Temp;Humidity;BMP_temperature;BMP_pressure;BME280_temperature;BME280_humidity;BME280_pressure;Samples;Min_cycle;Max_cycle;Signal;HPM_P1;HPM_P2
2021/05/27 00:00:17;;;;;;;4.63;2.23;;;14.00;94.40;;;;;;4426880;32;20432;-82
2021/05/27 00:02:44;;;;;;;4.27;1.80;;;14.10;94.80;;;;;;4426974;32;20150;-85
2021/05/27 00:05:13;;;;;;;2.93;1.70;;;14.10;94.50;;;;;;4425386;32;20181;-82
2021/05/27 00:07:41;;;;;;;3.47;1.50;;;14.10;95.10;;;;;;4425880;32;20170;-83
2021/05/27 00:10:10;;;;;;;1.90;1.43;;;14.20;95.10;;;;;;4424822;32;20166;-82
2021/05/27 00:12:37;;;;;;;3.37;1.50;;;14.10;95.50;;;;;;4425306;32;20162;-82
2021/05/27 00:15:07;;;;;;;3.50;1.63;;;14.00;95.70;;;;;;4411523;32;20488;-82
2021/05/27 00:17:34;;;;;;;2.33;1.30;;;14.00;96.10;;;;;;4425285;32;20200;-82
2021/05/27 00:20:04;;;;;;;2.80;1.50;;;14.00;96.80;;;;;;4425311;32;20186;-83
2021/05/27 00:22:31;;;;;;;2.00;1.40;;;14.00;97.40;;;;;;4426347;32;20161;-82
2021/05/27 00:24:58;;;;;;;3.43;1.60;;;13.90;97.50;;;;;;4424606;32;20151;-82
2021/05/27 00:27:31;;;;;;;2.63;1.40;;;13.90;97.60;;;;;;4413455;32;20469;-82
2021/05/27 00:29:59;;;;;;;3.17;1.50;;;13.90;97.70;;;;;;4424296;32;20453;-82
2021/05/27 00:32:26;;;;;;;5.60;1.70;;;13.90;98.20;;;;;;4424814;32;20221;-82
2021/05/27 00:34:53;;;;;;;3.77;1.60;;;13.80;98.60;;;;;;4424801;32;20193;-82
2021/05/27 00:37:20;;;;;;;5.30;1.60;;;13.80;98.60;;;;;;4425123;32;20415;-84
2021/05/27 00:39:47;;;;;;;3.00;1.60;;;13.80;98.50;;;;;;4424809;32;20460;-84
2021/05/27 00:42:14;;;;;;;3.63;1.57;;;13.70;99.10;;;;;;4424920;32;20421;-84
2021/05/27 00:44:42;;;;;;;3.63;1.53;;;13.70;99.10;;;;;;4424642;32;20173;-84
2021/05/27 00:47:10;;;;;;;4.57;1.67;;;13.70;99.90;;;;;;4424625;32;20173;-84
2021/05/27 00:49:37;;;;;;;3.40;1.63;;;13.70;99.90;;;;;;4424673;32;20454;-85
2021/05/27 00:52:05;;;;;;;2.47;1.57;;;13.80;99.90;;;;;;4424690;32;20158;-84
2021/05/27 00:54:32;;;;;;;2.73;1.60;;;13.80;99.90;;;;;;4424600;32;20177;-85
2021/05/27 00:57:00;;;;;;;2.27;1.50;;;13.80;99.90;;;;;;4425676;32;20177;-84
2021/05/27 00:59:27;;;;;;;2.83;1.70;;;13.80;99.90;;;;;;4426077;32;20146;-84
2021/05/27 01:01:54;;;;;;;2.27;1.70;;;13.80;99.90;;;;;;4424987;32;20233;-84
2021/05/27 01:04:21;;;;;;;5.20;1.80;;;13.80;99.90;;;;;;4424722;32;20158;-84
2021/05/27 01:06:49;;;;;;;3.10;2.00;;;13.80;99.90;;;;;;4424583;32;20260;-84
2021/05/27 01:09:15;;;;;;;4.83;2.00;;;13.80;99.90;;;;;;4425962;32;20154;-84
2021/05/27 01:11:42;;;;;;;5.00;1.80;;;13.70;99.90;;;;;;4425151;32;20242;-84
2021/05/27 01:17:04;;;;;;;2.80;1.80;;;13.70;99.90;;;;;;4424829;32;20465;-84
2021/05/27 01:19:31;;;;;;;3.20;1.73;;;13.60;99.90;;;;;;4424291;32;20134;-84
2021/05/27 01:21:58;;;;;;;6.37;1.70;;;13.60;99.90;;;;;;4425831;32;20172;-84
2021/05/27 01:24:26;;;;;;;4.33;1.90;;;13.60;99.90;;;;;;4424399;32;20141;-84
2021/05/27 01:26:53;;;;;;;3.83;1.83;;;13.50;99.90;;;;;;4423815;32;20208;-83
2021/05/27 01:29:20;;;;;;;4.43;2.00;;;13.50;99.90;;;;;;4424945;32;20209;-83
2021/05/27 01:31:47;;;;;;;3.77;2.00;;;13.50;99.90;;;;;;4424530;32;20162;-83
2021/05/27 01:34:13;;;;;;;3.90;2.10;;;13.40;99.90;;;;;;4424169;32;20202;-82
2021/05/27 01:36:45;;;;;;;5.07;1.97;;;13.30;99.90;;;;;;4423649;32;20492;-83
2021/05/27 01:39:13;;;;;;;3.30;1.90;;;13.30;99.90;;;;;;4424274;32;20511;-83
2021/05/27 01:41:40;;;;;;;4.33;2.10;;;13.20;99.90;;;;;;4424258;32;20473;-82
2021/05/27 01:44:07;;;;;;;6.57;2.30;;;13.10;99.90;;;;;;4424233;32;20154;-84
2021/05/27 01:46:34;;;;;;;2.93;2.07;;;13.10;99.90;;;;;;4424136;32;20457;-83
2021/05/27 01:49:02;;;;;;;3.73;2.03;;;13.10;99.90;;;;;;4425653;32;20143;-84
2021/05/27 01:51:29;;;;;;;3.77;2.00;;;13.10;99.90;;;;;;4424229;32;20173;-83
2021/05/27 01:53:56;;;;;;;5.30;2.23;;;13.10;99.90;;;;;;4424206;32;20196;-83
2021/05/27 01:56:23;;;;;;;3.77;1.90;;;13.00;99.90;;;;;;4424174;32;20228;-83
2021/05/27 01:58:50;;;;;;;3.20;1.90;;;12.90;99.90;;;;;;4425445;32;20142;-83
2021/05/27 02:01:17;;;;;;;4.17;1.97;;;12.90;99.90;;;;;;4425038;32;20208;-83
2021/05/27 02:03:44;;;;;;;3.57;2.20;;;12.80;99.90;;;;;;4424100;32;20191;-83
2021/05/27 02:06:10;;;;;;;5.40;2.30;;;12.70;99.90;;;;;;4423931;32;20149;-83
2021/05/27 02:09:06;;;;;;;4.57;2.20;;;12.60;99.90;;;;;;4424038;32;20398;-83
2021/05/27 02:11:24;;;;;;;4.33;1.97;;;12.60;99.90;;;;;;4425185;32;20163;-83
2021/05/27 02:13:51;;;;;;;3.93;2.00;;;12.70;99.90;;;;;;4425176;32;20567;-83
2021/05/27 02:16:18;;;;;;;3.67;2.33;;;12.70;99.90;;;;;;4425005;32;20411;-83
2021/05/27 02:18:45;;;;;;;3.80;1.97;;;12.70;99.90;;;;;;4423923;32;20199;-84
2021/05/27 02:21:12;;;;;;;3.50;2.27;;;12.80;99.90;;;;;;4423881;32;20159;-83
2021/05/27 02:23:38;;;;;;;6.13;2.10;;;12.90;99.90;;;;;;4423955;32;20461;-83
2021/05/27 02:26:05;;;;;;;3.17;1.97;;;12.90;99.90;;;;;;4424105;32;20434;-84
2021/05/27 02:28:33;;;;;;;4.43;2.07;;;12.90;99.90;;;;;;4410234;32;20205;-82
2021/05/27 02:31:00;;;;;;;5.17;2.00;;;12.90;99.90;;;;;;4425205;32;20368;-84
2021/05/27 02:33:27;;;;;;;3.43;2.00;;;12.90;99.90;;;;;;4423899;32;20192;-82
2021/05/27 02:35:54;;;;;;;3.80;2.17;;;12.90;99.90;;;;;;4423829;32;20174;-82
2021/05/27 02:38:21;;;;;;;4.07;2.30;;;12.80;99.90;;;;;;4423728;32;20166;-82
2021/05/27 02:40:47;;;;;;;5.53;2.30;;;12.80;99.90;;;;;;4423775;32;20453;-82
2021/05/27 02:43:14;;;;;;;3.50;2.10;;;12.90;99.90;;;;;;4424062;32;20432;-82
2021/05/27 02:45:41;;;;;;;4.07;2.20;;;12.90;99.90;;;;;;4424270;32;20196;-83
2021/05/27 02:48:08;;;;;;;3.20;2.07;;;12.90;99.90;;;;;;4426264;32;20185;-82
2021/05/27 02:50:35;;;;;;;5.97;2.53;;;12.90;99.90;;;;;;4425531;32;20214;-83
2021/05/27 02:53:02;;;;;;;4.47;2.50;;;12.90;99.90;;;;;;4425988;32;20163;-82
2021/05/27 02:55:29;;;;;;;3.77;2.37;;;12.90;99.90;;;;;;4427281;32;20471;-82
2021/05/27 02:57:55;;;;;;;5.03;2.50;;;12.90;99.90;;;;;;4425858;32;20240;-82
2021/05/27 03:00:22;;;;;;;2.97;2.20;;;12.90;99.90;;;;;;4426014;32;20215;-82
2021/05/27 03:02:49;;;;;;;4.10;2.30;;;12.70;99.90;;;;;;4426313;32;20151;-83
2021/05/27 03:05:16;;;;;;;4.70;2.20;;;12.80;99.90;;;;;;4427114;32;20143;-83
2021/05/27 03:07:43;;;;;;;3.37;2.03;;;12.90;99.90;;;;;;4426698;32;20419;-82
2021/05/27 03:10:11;;;;;;;3.77;2.23;;;12.90;99.90;;;;;;4426338;32;20549;-82
2021/05/27 03:12:38;;;;;;;4.97;2.20;;;13.00;99.90;;;;;;4426077;32;20155;-82
2021/05/27 03:15:06;;;;;;;4.70;2.30;;;13.00;99.90;;;;;;4426507;32;20175;-82
2021/05/27 03:17:33;;;;;;;4.00;2.30;;;13.10;99.90;;;;;;4426591;32;20166;-82
2021/05/27 03:20:01;;;;;;;3.67;2.33;;;13.10;99.90;;;;;;4411966;32;20200;-83
2021/05/27 03:22:28;;;;;;;5.80;2.13;;;13.10;99.90;;;;;;4426141;32;20146;-82
2021/05/27 03:24:55;;;;;;;3.57;2.10;;;13.10;99.90;;;;;;4426213;32;20151;-82
2021/05/27 03:27:23;;;;;;;5.03;2.30;;;13.10;99.90;;;;;;4425707;32;20166;-82
2021/05/27 03:29:49;;;;;;;3.73;2.23;;;13.10;99.90;;;;;;4427415;32;20200;-82
2021/05/27 03:32:16;;;;;;;4.53;2.27;;;13.20;99.90;;;;;;4425386;32;20171;-82
2021/05/27 03:34:43;;;;;;;4.53;2.00;;;13.20;99.90;;;;;;4425607;32;20184;-82
2021/05/27 03:37:10;;;;;;;3.97;2.00;;;13.30;99.90;;;;;;4425725;32;20150;-82
2021/05/27 03:39:37;;;;;;;3.37;2.40;;;13.30;99.90;;;;;;4425721;32;20143;-82
2021/05/27 03:42:04;;;;;;;3.57;1.90;;;13.30;99.90;;;;;;4427161;32;20482;-82
2021/05/27 03:44:31;;;;;;;3.90;2.00;;;13.30;99.90;;;;;;4425374;32;20212;-82
2021/05/27 03:46:58;;;;;;;7.60;2.23;;;13.40;99.90;;;;;;4425396;32;20155;-82
2021/05/27 03:49:25;;;;;;;5.90;2.00;;;13.40;99.90;;;;;;4425706;32;20154;-82
2021/05/27 03:51:52;;;;;;;4.13;2.10;;;13.50;99.90;;;;;;4425475;32;20158;-82
2021/05/27 03:54:19;;;;;;;3.77;2.30;;;13.50;99.90;;;;;;4425559;32;20194;-82
2021/05/27 03:56:45;;;;;;;6.63;2.50;;;13.60;99.90;;;;;;4426111;32;20526;-82
2021/05/27 04:01:58;;;;;;;5.90;2.17;;;13.70;99.90;;;;;;4426151;32;20522;-82
2021/05/27 04:07:17;;;;;;;3.50;1.90;;;13.50;99.90;;;;;;4378320;32;20188;-82
2021/05/27 04:09:44;;;;;;;3.37;1.83;;;13.50;99.90;;;;;;4365233;32;20233;-82
2021/05/27 04:17:42;;;;;;;4.93;1.80;;;13.40;99.90;;;;;;4379243;32;20207;-82
2021/05/27 04:20:11;;;;;;;4.60;1.70;;;13.40;99.90;;;;;;4377706;32;20151;-82
2021/05/27 04:22:42;;;;;;;3.50;1.60;;;13.50;99.90;;;;;;4378676;32;20202;-82
2021/05/27 04:25:11;;;;;;;4.40;1.87;;;13.40;99.90;;;;;;4378302;32;20551;-82
2021/05/27 04:27:39;;;;;;;4.27;1.83;;;13.30;99.90;;;;;;4379010;32;20159;-81
2021/05/27 04:30:17;;;;;;;4.50;1.90;;;13.40;99.90;;;;;;4378024;32;20199;-83
2021/05/27 04:33:11;;;;;;;3.37;1.70;;;13.40;99.90;;;;;;4377238;32;20274;-83
2021/05/27 04:35:41;;;;;;;4.93;2.10;;;13.40;99.90;;;;;;4378169;32;20156;-83
2021/05/27 04:38:17;;;;;;;5.27;1.80;;;13.50;99.90;;;;;;4378069;32;20167;-82
2021/05/27 04:40:46;;;;;;;3.33;1.90;;;13.20;99.90;;;;;;4377314;32;20187;-82
2021/05/27 04:43:18;;;;;;;3.13;1.70;;;13.20;99.90;;;;;;4380526;32;20190;-82
2021/05/27 04:45:45;;;;;;;6.37;1.80;;;13.30;99.90;;;;;;4426175;32;20187;-82
2021/05/27 04:48:15;;;;;;;2.17;1.60;;;13.30;99.90;;;;;;4426180;32;20204;-82
2021/05/27 04:50:44;;;;;;;2.90;1.93;;;13.30;99.90;;;;;;4424477;32;20187;-82
2021/05/27 04:53:12;;;;;;;3.73;1.73;;;13.40;99.90;;;;;;4425346;32;20162;-83
2021/05/27 04:55:39;;;;;;;3.10;1.90;;;13.40;99.90;;;;;;4424282;32;20411;-82
2021/05/27 04:58:06;;;;;;;3.20;1.60;;;13.50;99.90;;;;;;4426084;32;20200;-83
2021/05/27 05:00:34;;;;;;;3.10;1.63;;;13.60;99.90;;;;;;4425076;32;20181;-83
2021/05/27 05:03:01;;;;;;;2.90;1.70;;;13.40;99.90;;;;;;4424672;32;20150;-82
2021/05/27 05:05:30;;;;;;;3.67;1.80;;;13.30;99.90;;;;;;4425123;32;20151;-82
2021/05/27 05:07:57;;;;;;;3.40;1.87;;;13.40;99.90;;;;;;4424896;32;20192;-83
2021/05/27 05:10:26;;;;;;;3.90;1.60;;;13.40;99.90;;;;;;4424222;32;20196;-83
2021/05/27 05:12:54;;;;;;;3.57;2.00;;;13.40;99.90;;;;;;4425419;32;20483;-82
2021/05/27 05:15:29;;;;;;;4.30;1.60;;;13.60;99.90;;;;;;4424342;32;20492;-82
2021/05/27 05:17:57;;;;;;;4.00;1.67;;;13.60;99.90;;;;;;4425877;32;20153;-82
2021/05/27 05:20:30;;;;;;;4.30;1.53;;;13.60;99.90;;;;;;4425555;32;20197;-82
2021/05/27 05:22:58;;;;;;;2.73;1.60;;;13.60;99.90;;;;;;4424872;32;20201;-83
2021/05/27 05:25:26;;;;;;;4.33;1.50;;;13.70;99.90;;;;;;4423301;32;20195;-81
2021/05/27 05:27:53;;;;;;;4.33;1.50;;;13.70;99.90;;;;;;4424187;32;20149;-81
2021/05/27 05:30:21;;;;;;;2.00;1.43;;;13.80;99.90;;;;;;4424117;32;20158;-81
2021/05/27 05:32:49;;;;;;;2.83;1.70;;;13.80;99.90;;;;;;4424049;32;20382;-80
2021/05/27 05:35:18;;;;;;;2.53;1.60;;;13.90;99.90;;;;;;4424182;32;20215;-82
2021/05/27 05:37:46;;;;;;;2.57;1.57;;;14.00;99.90;;;;;;4424130;32;20196;-82
2021/05/27 05:40:15;;;;;;;4.77;1.50;;;14.10;99.90;;;;;;4425768;32;20494;-82
2021/05/27 05:42:42;;;;;;;2.23;1.50;;;14.20;99.90;;;;;;4423975;32;20167;-83
2021/05/27 05:45:13;;;;;;;3.03;1.90;;;14.40;99.90;;;;;;4425018;32;20158;-83
2021/05/27 05:47:40;;;;;;;4.67;1.60;;;14.40;99.90;;;;;;4423732;32;20159;-83
2021/05/27 05:50:08;;;;;;;4.00;1.60;;;14.50;99.90;;;;;;4423645;32;20196;-82
2021/05/27 05:52:35;;;;;;;4.77;1.63;;;14.40;99.90;;;;;;4424000;32;20216;-82
2021/05/27 05:55:05;;;;;;;2.23;1.80;;;14.40;99.90;;;;;;4424319;32;20191;-83
2021/05/27 05:57:32;;;;;;;2.30;1.50;;;14.30;99.90;;;;;;4424486;32;20185;-82
2021/05/27 05:59:59;;;;;;;3.30;1.57;;;14.40;99.90;;;;;;4425778;32;20196;-82
2021/05/27 06:02:26;;;;;;;2.73;1.60;;;14.40;99.90;;;;;;4424249;32;20430;-82
2021/05/27 06:04:53;;;;;;;4.00;1.70;;;14.50;99.90;;;;;;4425638;32;20194;-82
2021/05/27 06:07:20;;;;;;;4.00;1.90;;;14.40;99.90;;;;;;4425535;32;20204;-83
2021/05/27 06:09:47;;;;;;;3.10;1.60;;;14.40;99.90;;;;;;4425035;32;20155;-83
2021/05/27 06:12:13;;;;;;;3.50;1.60;;;14.50;99.90;;;;;;4423697;32;20356;-83
2021/05/27 06:14:40;;;;;;;2.30;1.53;;;14.50;99.90;;;;;;4423648;32;20221;-84
2021/05/27 06:17:08;;;;;;;2.87;1.60;;;14.60;99.90;;;;;;4423946;32;20142;-82
2021/05/27 06:19:34;;;;;;;2.60;1.60;;;14.50;99.90;;;;;;4424076;32;20174;-83
2021/05/27 06:22:03;;;;;;;2.97;1.50;;;14.40;99.90;;;;;;4425366;32;20196;-83
2021/05/27 06:24:30;;;;;;;3.00;1.50;;;14.20;99.90;;;;;;4427019;32;20177;-83
2021/05/27 06:26:57;;;;;;;1.83;1.50;;;14.30;99.90;;;;;;4427632;32;20161;-83
2021/05/27 06:29:24;;;;;;;2.50;1.70;;;14.30;99.90;;;;;;4426554;32;20165;-82
2021/05/27 06:31:51;;;;;;;3.00;1.80;;;14.30;99.90;;;;;;4427352;32;20214;-83
2021/05/27 06:34:17;;;;;;;2.73;1.97;;;14.10;99.90;;;;;;4428418;32;20150;-84
2021/05/27 06:36:44;;;;;;;4.63;1.70;;;14.10;99.90;;;;;;4427328;32;20244;-83
2021/05/27 06:39:11;;;;;;;2.83;1.70;;;14.10;99.90;;;;;;4426610;32;20146;-82
2021/05/27 06:41:38;;;;;;;4.67;2.00;;;14.10;99.90;;;;;;4426948;32;20150;-83
2021/05/27 06:44:05;;;;;;;4.83;1.80;;;14.20;99.90;;;;;;4426207;32;20588;-77
2021/05/27 06:46:32;;;;;;;2.90;1.77;;;14.20;99.90;;;;;;4426420;32;20409;-76
2021/05/27 06:48:59;;;;;;;2.60;1.70;;;14.30;99.90;;;;;;4426966;32;20162;-76
2021/05/27 06:51:26;;;;;;;4.50;2.20;;;14.30;99.90;;;;;;4426329;32;20150;-77
2021/05/27 06:53:53;;;;;;;2.80;1.60;;;14.60;99.90;;;;;;4426027;32;20184;-77
2021/05/27 06:56:20;;;;;;;2.43;1.80;;;14.80;99.90;;;;;;4427916;32;20203;-78
2021/05/27 06:58:47;;;;;;;2.10;1.70;;;15.10;99.90;;;;;;4422747;32;20159;-77
2021/05/27 07:01:14;;;;;;;2.80;1.53;;;15.40;99.90;;;;;;4419142;32;20519;-77
2021/05/27 07:03:41;;;;;;;2.10;1.50;;;15.50;99.90;;;;;;4411115;32;20155;-76
2021/05/27 07:06:08;;;;;;;2.30;1.50;;;15.50;99.90;;;;;;4415299;32;20530;-80
2021/05/27 07:08:36;;;;;;;4.10;1.60;;;15.50;99.90;;;;;;4427081;32;20507;-79
2021/05/27 07:11:03;;;;;;;2.23;1.40;;;15.50;99.90;;;;;;4419621;32;20155;-73
2021/05/27 07:13:30;;;;;;;3.43;1.50;;;15.50;99.90;;;;;;4410344;32;20173;-77
2021/05/27 07:15:57;;;;;;;5.73;1.90;;;15.60;99.90;;;;;;4411855;32;20514;-75
2021/05/27 07:18:24;;;;;;;2.23;1.50;;;15.70;99.90;;;;;;4410444;32;20151;-76
2021/05/27 07:20:51;;;;;;;3.43;1.83;;;15.70;99.90;;;;;;4410083;32;20493;-76
2021/05/27 07:23:18;;;;;;;3.83;2.03;;;15.80;99.90;;;;;;4411121;32;20158;-75
2021/05/27 07:25:45;;;;;;;3.57;1.43;;;15.80;99.90;;;;;;4414598;32;20202;-75
2021/05/27 07:28:13;;;;;;;2.77;1.70;;;15.70;99.90;;;;;;4417137;32;20147;-74
2021/05/27 07:30:40;;;;;;;2.67;1.80;;;15.70;99.90;;;;;;4414361;32;20580;-75
2021/05/27 07:33:07;;;;;;;4.03;2.00;;;15.80;99.90;;;;;;4423881;32;20208;-75
2021/05/27 07:35:34;;;;;;;2.03;1.60;;;15.90;99.90;;;;;;4424983;32;20496;-74
2021/05/27 07:38:01;;;;;;;3.63;1.60;;;15.90;99.90;;;;;;4425274;32;20167;-74
2021/05/27 07:40:28;;;;;;;3.77;1.67;;;16.00;99.30;;;;;;4409067;32;20198;-74
2021/05/27 07:42:57;;;;;;;2.03;1.50;;;16.00;99.10;;;;;;4409104;32;20258;-75
2021/05/27 07:45:24;;;;;;;2.20;1.77;;;16.00;98.10;;;;;;4408474;32;20206;-74
2021/05/27 07:47:51;;;;;;;5.27;1.70;;;16.10;98.30;;;;;;4408804;32;20195;-73
2021/05/27 07:50:20;;;;;;;2.23;1.57;;;16.00;97.20;;;;;;4411849;32;20187;-74
2021/05/27 07:52:52;;;;;;;3.87;1.63;;;16.10;97.40;;;;;;4410438;32;20209;-74
2021/05/27 07:55:19;;;;;;;2.93;1.50;;;16.10;98.10;;;;;;4410596;32;20188;-74
2021/05/27 07:57:46;;;;;;;2.73;1.57;;;15.90;96.20;;;;;;4410213;32;20146;-73
2021/05/27 08:00:14;;;;;;;1.93;1.40;;;16.00;96.20;;;;;;4414417;32;20167;-73
2021/05/27 08:02:41;;;;;;;1.57;1.27;;;15.90;95.90;;;;;;4425418;32;20179;-73
2021/05/27 08:05:09;;;;;;;2.13;1.33;;;16.00;95.30;;;;;;4412541;32;20456;-73
2021/05/27 08:07:37;;;;;;;2.83;1.50;;;16.00;95.90;;;;;;4424980;32;20154;-73
2021/05/27 08:10:05;;;;;;;3.30;1.50;;;16.00;95.50;;;;;;4425570;32;20167;-73
2021/05/27 08:12:32;;;;;;;2.73;1.30;;;16.20;94.60;;;;;;4425324;32;20176;-74
2021/05/27 08:14:59;;;;;;;4.03;1.30;;;16.30;93.60;;;;;;4425299;32;20222;-72
2021/05/27 08:17:26;;;;;;;1.83;1.20;;;16.30;93.10;;;;;;4411764;32;20544;-73
2021/05/27 08:19:54;;;;;;;3.07;1.20;;;16.30;92.30;;;;;;4424479;32;20151;-73
2021/05/27 08:22:21;;;;;;;2.07;1.07;;;16.70;91.50;;;;;;4425019;32;20151;-76
2021/05/27 08:24:48;;;;;;;1.70;1.00;;;17.40;89.20;;;;;;4424045;32;20205;-74
2021/05/27 08:27:15;;;;;;;1.53;1.17;;;18.00;84.40;;;;;;4423300;32;20163;-74
2021/05/27 08:29:41;;;;;;;1.70;1.10;;;18.60;80.10;;;;;;4423289;32;20516;-74
2021/05/27 08:32:08;;;;;;;3.67;1.10;;;18.60;78.10;;;;;;4423966;32;20162;-75
2021/05/27 08:34:35;;;;;;;1.07;0.90;;;18.50;78.40;;;;;;4424731;32;20190;-77
2021/05/27 08:37:02;;;;;;;3.37;1.10;;;17.80;80.20;;;;;;4426248;32;20207;-75
2021/05/27 08:39:31;;;;;;;2.20;1.00;;;17.40;82.70;;;;;;4426031;32;20151;-75
2021/05/27 08:41:59;;;;;;;1.87;1.10;;;17.30;83.10;;;;;;4411795;32;20456;-75
2021/05/27 08:44:27;;;;;;;2.00;1.30;;;17.60;82.00;;;;;;4415426;32;20212;-74
2021/05/27 08:46:54;;;;;;;1.10;0.97;;;17.60;80.50;;;;;;4425012;32;20150;-74
2021/05/27 08:49:21;;;;;;;1.87;1.00;;;17.80;79.90;;;;;;4424802;32;20139;-76
2021/05/27 08:51:48;;;;;;;2.07;1.00;;;18.10;77.60;;;;;;4422213;32;20158;-76
2021/05/27 08:54:15;;;;;;;1.60;1.03;;;18.50;77.50;;;;;;4422230;32;20539;-77
2021/05/27 08:56:42;;;;;;;2.67;1.50;;;19.30;74.20;;;;;;4425425;32;20166;-75
2021/05/27 08:59:09;;;;;;;1.93;1.20;;;18.90;73.00;;;;;;4424735;32;20194;-74
2021/05/27 09:02:00;;;;;;;2.87;1.37;;;18.70;75.70;;;;;;4420000;32;20239;-74
2021/05/27 09:04:27;;;;;;;2.07;1.27;;;18.40;75.40;;;;;;4425045;32;20158;-72
2021/05/27 09:06:54;;;;;;;1.30;1.10;;;18.10;75.80;;;;;;4421285;32;20155;-74
2021/05/27 09:09:21;;;;;;;2.80;1.07;;;18.40;74.40;;;;;;4424397;32;20210;-74
2021/05/27 09:11:48;;;;;;;1.40;1.10;;;18.80;75.30;;;;;;4424281;32;20155;-73
2021/05/27 09:14:16;;;;;;;3.53;1.30;;;18.60;75.10;;;;;;4425008;32;20414;-76
2021/05/27 09:16:56;;;;;;;1.30;1.07;;;19.00;74.70;;;;;;4425871;32;20196;-76
2021/05/27 09:19:24;;;;;;;1.57;1.00;;;18.70;73.70;;;;;;4423820;32;20193;-75
2021/05/27 09:21:51;;;;;;;1.47;1.10;;;18.30;73.40;;;;;;4412097;32;20178;-74
2021/05/27 09:24:45;;;;;;;2.90;1.30;;;17.80;74.90;;;;;;4421613;32;20488;-75
2021/05/27 09:27:11;;;;;;;1.37;1.13;;;18.20;76.10;;;;;;4411054;32;20431;-74
2021/05/27 09:29:45;;;;;;;1.20;1.10;;;18.30;73.90;;;;;;4423914;32;20151;-74
2021/05/27 09:32:14;;;;;;;1.43;1.00;;;18.10;72.80;;;;;;4422682;32;20158;-75
2021/05/27 09:34:47;;;;;;;3.27;1.00;;;18.20;73.00;;;;;;4423757;32;20233;-75
2021/05/27 09:37:30;;;;;;;4.20;0.90;;;18.40;71.10;;;;;;4423029;32;20166;-74
2021/05/27 09:40:02;;;;;;;2.00;1.00;;;18.30;69.60;;;;;;4418334;32;20198;-76
2021/05/27 09:42:29;;;;;;;1.03;0.93;;;19.20;70.30;;;;;;4416730;32;20203;-80
2021/05/27 09:44:56;;;;;;;2.30;1.03;;;19.80;65.40;;;;;;4418858;32;20174;-79
2021/05/27 09:47:34;;;;;;;1.67;1.00;;;19.80;63.20;;;;;;4420617;32;20215;-79
2021/05/27 09:50:06;;;;;;;1.17;0.93;;;19.40;62.40;;;;;;4418336;32;20159;-76
2021/05/27 09:52:46;;;;;;;1.93;1.00;;;19.30;64.60;;;;;;4422449;32;20151;-76
2021/05/27 09:55:17;;;;;;;1.53;0.90;;;19.50;63.50;;;;;;4422140;32;20184;-76
2021/05/27 09:57:46;;;;;;;1.27;1.00;;;19.20;63.30;;;;;;4427363;32;20166;-76
2021/05/27 10:00:22;;;;;;;2.67;0.90;;;19.20;63.70;;;;;;4428060;32;20157;-77
2021/05/27 10:02:50;;;;;;;2.77;0.90;;;19.40;63.10;;;;;;4426787;32;20182;-75
2021/05/27 10:05:18;;;;;;;2.20;1.00;;;19.30;61.10;;;;;;4426842;32;20260;-76
2021/05/27 10:07:47;;;;;;;0.97;0.80;;;19.10;63.90;;;;;;4426450;32;20554;-76
2021/05/27 10:10:35;;;;;;;1.03;0.80;;;18.70;63.10;;;;;;4426501;32;20169;-75
2021/05/27 10:13:06;;;;;;;2.30;1.13;;;18.40;65.40;;;;;;4426582;32;20562;-76
2021/05/27 10:15:34;;;;;;;1.90;1.00;;;18.40;67.10;;;;;;4425902;32;20166;-76
2021/05/27 10:18:05;;;;;;;2.20;1.07;;;18.90;65.50;;;;;;4426904;32;20503;-77
2021/05/27 10:20:33;;;;;;;2.73;0.97;;;19.50;64.90;;;;;;4427703;32;20150;-76
2021/05/27 10:23:03;;;;;;;1.93;0.90;;;19.80;65.60;;;;;;4426836;32;20158;-77
2021/05/27 10:25:30;;;;;;;2.33;1.10;;;19.90;59.90;;;;;;4428220;32;20210;-76
2021/05/27 10:28:02;;;;;;;1.53;0.87;;;19.80;62.00;;;;;;4426667;32;20155;-76
2021/05/27 10:30:36;;;;;;;2.73;1.00;;;20.80;59.30;;;;;;4415117;32;20173;-77
2021/05/27 10:33:05;;;;;;;1.27;0.87;;;21.40;57.50;;;;;;4426700;32;20198;-77
2021/05/27 10:35:49;;;;;;;1.43;1.07;;;21.60;56.60;;;;;;4428359;32;20154;-78
2021/05/27 10:38:36;;;;;;;2.80;0.90;;;21.10;56.20;;;;;;4426964;32;20178;-78
2021/05/27 10:41:05;;;;;;;1.53;0.80;;;21.10;56.30;;;;;;4426468;32;20198;-77
2021/05/27 10:43:32;;;;;;;2.80;1.20;;;21.10;56.90;;;;;;4427259;32;20169;-77
2021/05/27 10:46:01;;;;;;;2.17;0.90;;;21.10;56.20;;;;;;4426625;32;20181;-78
2021/05/27 10:48:30;;;;;;;1.27;0.85;;;21.40;55.20;;;;;;4426634;32;20425;-78
2021/05/27 10:51:07;;;;;;;1.87;1.00;;;21.40;54.50;;;;;;4425760;32;20472;-78
2021/05/27 10:56:03;;;;;;;3.20;1.00;;;22.00;54.90;;;;;;4427859;32;20468;-78
2021/05/27 10:58:46;;;;;;;1.27;0.90;;;22.50;53.00;;;;;;4427680;32;20450;-78
2021/05/27 11:01:14;;;;;;;2.40;1.00;;;21.90;54.70;;;;;;4426952;32;20169;-79
2021/05/27 11:03:50;;;;;;;3.93;1.00;;;22.40;54.00;;;;;;4425548;32;20178;-79
2021/05/27 11:06:20;;;;;;;3.97;1.40;;;22.40;53.50;;;;;;4426652;32;20184;-78
2021/05/27 11:08:48;;;;;;;4.85;1.20;;;22.10;55.90;;;;;;4425414;32;20219;-79
2021/05/27 11:11:34;;;;;;;3.27;1.00;;;22.70;55.70;;;;;;4426538;32;20170;-79
2021/05/27 11:14:27;;;;;;;2.20;1.30;;;23.00;53.20;;;;;;4426469;32;20180;-78
2021/05/27 11:19:51;;;;;;;1.80;1.30;;;23.40;52.70;;;;;;4426461;32;20154;-79
2021/05/27 11:27:49;;;;;;;2.22;1.35;;;24.30;50.40;;;;;;4427503;32;20192;-79
2021/05/27 11:30:38;;;;;;;1.65;1.30;;;23.80;49.10;;;;;;4425621;32;20540;-78
2021/05/27 11:33:05;;;;;;;1.95;1.33;;;23.00;51.20;;;;;;4425302;32;20223;-77
2021/05/27 11:35:38;;;;;;;2.80;1.40;;;22.40;54.40;;;;;;4426956;32;20472;-78
2021/05/27 11:38:06;;;;;;;1.87;1.40;;;22.40;54.40;;;;;;4425583;32;20166;-78
2021/05/27 11:40:37;;;;;;;1.83;1.50;;;22.70;54.10;;;;;;4425674;32;20174;-77
2021/05/27 11:43:04;;;;;;;3.78;1.60;;;22.50;54.10;;;;;;4425600;32;20143;-77
2021/05/27 11:46:06;;;;;;;1.90;1.63;;;21.30;54.60;;;;;;4426673;32;20135;-77
2021/05/27 11:48:40;;;;;;;3.87;1.60;;;20.30;56.90;;;;;;4348565;33;20194;-78
2021/05/27 11:51:10;;;;;;;1.73;1.30;;;20.10;58.50;;;;;;4349795;33;20199;-78
2021/05/27 11:53:47;;;;;;;2.63;1.40;;;19.80;59.30;;;;;;4349515;33;20178;-78
2021/05/27 11:56:31;;;;;;;2.20;1.50;;;19.90;59.00;;;;;;4348630;33;20491;-78
2021/05/27 11:58:58;;;;;;;1.60;1.50;;;19.70;59.00;;;;;;4348324;33;20255;-78
2021/05/27 12:01:28;;;;;;;2.53;1.40;;;20.60;59.10;;;;;;4348307;33;20145;-78
2021/05/27 12:04:07;;;;;;;1.80;1.53;;;20.90;55.90;;;;;;4347450;33;20153;-78
2021/05/27 12:06:54;;;;;;;1.70;1.23;;;21.10;55.60;;;;;;4349313;33;20171;-78
2021/05/27 12:09:25;;;;;;;2.20;1.23;;;20.90;54.90;;;;;;4347813;33;20152;-78
2021/05/27 12:11:53;;;;;;;1.50;1.40;;;20.40;55.80;;;;;;4349708;33;20168;-78
2021/05/27 12:14:21;;;;;;;2.30;1.30;;;20.30;57.10;;;;;;4347498;33;20155;-80
2021/05/27 12:16:51;;;;;;;1.90;1.70;;;20.40;57.10;;;;;;4347970;33;20149;-78
2021/05/27 12:19:18;;;;;;;2.53;1.80;;;20.00;58.80;;;;;;4347071;33;20214;-79
2021/05/27 12:22:03;;;;;;;3.10;1.50;;;19.70;59.60;;;;;;4349271;33;20207;-79
2021/05/27 12:24:30;;;;;;;1.87;1.67;;;19.70;60.90;;;;;;4397111;32;20151;-79
2021/05/27 12:26:58;;;;;;;4.20;1.63;;;19.80;60.60;;;;;;4426435;32;20159;-79
2021/05/27 12:29:25;;;;;;;2.20;1.70;;;20.10;59.30;;;;;;4424940;32;20204;-79
2021/05/27 12:31:53;;;;;;;2.67;1.50;;;20.50;57.60;;;;;;4425043;32;20139;-78
2021/05/27 12:34:20;;;;;;;1.43;1.33;;;20.80;56.60;;;;;;4424874;32;20167;-78
2021/05/27 12:37:01;;;;;;;3.37;1.40;;;21.80;55.50;;;;;;4424996;32;20147;-79
2021/05/27 12:39:39;;;;;;;1.57;1.30;;;23.10;52.80;;;;;;4425493;32;20146;-78
2021/05/27 12:42:08;;;;;;;2.87;1.27;;;23.70;49.40;;;;;;4425402;32;20173;-78
2021/05/27 12:44:48;;;;;;;2.10;1.47;;;23.50;50.00;;;;;;4424742;32;20166;-78
2021/05/27 12:47:18;;;;;;;2.20;1.45;;;22.80;51.50;;;;;;4425399;32;20139;-78
2021/05/27 12:49:59;;;;;;;2.53;1.70;;;22.50;52.50;;;;;;4485504;31;20252;-78
2021/05/27 12:52:37;;;;;;;1.53;1.37;;;22.10;52.60;;;;;;4468660;32;20161;-78
2021/05/27 12:55:10;;;;;;;2.10;1.60;;;21.50;54.40;;;;;;4468601;32;20471;-78
2021/05/27 12:57:54;;;;;;;1.87;1.63;;;20.70;56.10;;;;;;4468006;32;20402;-77
2021/05/27 13:00:22;;;;;;;2.40;1.50;;;20.20;57.10;;;;;;4470115;32;20539;-78
2021/05/27 13:03:07;;;;;;;3.13;1.40;;;20.60;56.90;;;;;;4468185;32;20206;-78
2021/05/27 13:05:33;;;;;;;2.50;1.30;;;21.20;55.10;;;;;;4468848;32;20168;-78
2021/05/27 13:08:03;;;;;;;2.13;1.30;;;21.90;53.30;;;;;;4469582;32;20364;-78
2021/05/27 13:10:33;;;;;;;3.33;1.50;;;22.60;52.90;;;;;;4467933;32;20428;-77
2021/05/27 13:13:01;;;;;;;3.33;1.30;;;21.90;50.50;;;;;;4467812;32;20467;-78
2021/05/27 13:15:29;;;;;;;2.40;1.30;;;21.60;53.60;;;;;;4469914;32;20138;-77
2021/05/27 13:18:06;;;;;;;1.70;1.20;;;21.30;52.30;;;;;;4468390;32;20460;-78
2021/05/27 13:21:11;;;;;;;2.60;1.30;;;21.10;53.60;;;;;;4469598;32;20189;-78
2021/05/27 13:23:39;;;;;;;2.93;1.20;;;20.50;53.50;;;;;;4404020;32;20143;-78